createdAt,value
2022-12-12T00:01:11.450Z,31.95
2022-12-12T00:03:38.569Z,31.42
2022-12-12T00:06:06.100Z,31.55
2022-12-12T00:08:33.219Z,30.60
2022-12-12T00:11:00.350Z,31.08
2022-12-12T00:13:27.380Z,31.65
2022-12-12T00:15:54.431Z,31.35
2022-12-12T00:18:21.472Z,31.35
2022-12-12T00:20:52.250Z,30.42
2022-12-12T00:23:19.474Z,31.00
2022-12-12T00:25:46.581Z,31.10
2022-12-12T00:28:13.592Z,28.95
2022-12-12T00:30:40.595Z,29.67
2022-12-12T00:33:07.576Z,29.75
2022-12-12T00:35:34.634Z,31.00
2022-12-12T00:38:01.745Z,32.33
2022-12-12T00:40:28.742Z,32.78
2022-12-12T00:42:55.811Z,31.02
2022-12-12T00:45:22.817Z,31.25
2022-12-12T00:47:49.894Z,29.52
2022-12-12T00:50:16.912Z,32.78
2022-12-12T00:52:43.954Z,29.42
2022-12-12T00:55:12.453Z,30.27
2022-12-12T00:57:39.600Z,31.15
2022-12-12T01:00:07.169Z,29.10
2022-12-12T01:02:34.196Z,29.60
2022-12-12T01:05:01.265Z,31.98
2022-12-12T01:07:28.637Z,32.67
2022-12-12T01:09:55.711Z,31.08
2022-12-12T01:12:22.757Z,32.35
2022-12-12T01:14:49.884Z,31.35
2022-12-12T01:17:16.909Z,29.65
2022-12-12T01:19:43.940Z,33.15
2022-12-12T01:22:11.055Z,32.92
2022-12-12T01:24:38.112Z,32.75
2022-12-12T01:27:05.239Z,28.88
2022-12-12T01:29:33.544Z,29.83
2022-12-12T01:32:00.700Z,30.33
2022-12-12T01:34:27.751Z,30.08
2022-12-12T01:36:54.765Z,30.42
2022-12-12T01:39:22.225Z,30.35
2022-12-12T01:41:49.226Z,30.15
2022-12-12T01:44:34.743Z,30.35
2022-12-12T01:47:01.851Z,31.13
2022-12-12T01:49:28.892Z,31.35
2022-12-12T01:51:57.626Z,31.65
2022-12-12T01:54:28.453Z,30.70
2022-12-12T01:56:56.058Z,32.35
2022-12-12T01:59:23.427Z,30.60
2022-12-12T02:01:50.542Z,30.33
2022-12-12T02:04:17.705Z,29.75
2022-12-12T02:06:44.771Z,29.88
2022-12-12T02:09:12.276Z,30.45
2022-12-12T02:11:42.788Z,29.17
2022-12-12T02:16:51.809Z,29.20
2022-12-12T02:19:25.874Z,30.63
2022-12-12T02:21:56.008Z,29.38
2022-12-12T02:24:28.885Z,30.83
2022-12-12T02:26:55.971Z,30.70
2022-12-12T02:29:26.047Z,32.47
2022-12-12T02:31:54.573Z,31.13
2022-12-12T02:34:24.731Z,32.10
2022-12-12T02:37:01.012Z,32.55
2022-12-12T02:39:34.088Z,31.77
2022-12-12T02:42:02.254Z,31.08
2022-12-12T02:44:36.697Z,32.05
2022-12-12T02:47:11.255Z,33.42
2022-12-12T02:49:39.722Z,32.72
2022-12-12T02:52:07.168Z,34.53
2022-12-12T02:54:34.926Z,33.75
2022-12-12T02:57:02.121Z,35.65
2022-12-12T02:59:34.276Z,32.63
2022-12-12T03:02:20.221Z,32.28
2022-12-12T03:05:11.562Z,31.38
2022-12-12T03:07:48.100Z,32.03
2022-12-12T03:10:17.849Z,32.00
2022-12-12T03:13:06.520Z,31.60
2022-12-12T03:15:39.839Z,30.67
2022-12-12T03:18:25.611Z,29.85
2022-12-12T03:21:11.410Z,28.48
2022-12-12T03:23:39.858Z,30.00
2022-12-12T03:26:15.460Z,30.38
2022-12-12T03:28:53.466Z,31.85
2022-12-12T03:31:20.919Z,31.77
2022-12-12T03:33:49.474Z,32.13
2022-12-12T03:36:24.296Z,32.72
2022-12-12T03:39:01.373Z,32.78
2022-12-12T03:41:30.162Z,34.10
2022-12-12T03:44:01.827Z,33.53
2022-12-12T03:46:29.937Z,34.92
2022-12-12T03:48:58.426Z,34.05
2022-12-12T03:51:29.325Z,34.75
2022-12-12T03:54:01.004Z,34.75
2022-12-12T03:56:39.973Z,35.15
2022-12-12T03:59:11.109Z,34.47
2022-12-12T04:01:48.887Z,35.58
2022-12-12T04:04:24.762Z,33.53
2022-12-12T04:07:10.505Z,35.13
2022-12-12T04:09:55.926Z,35.50
2022-12-12T04:12:53.805Z,36.03
2022-12-12T04:15:23.567Z,36.13
2022-12-12T04:18:09.119Z,37.97
2022-12-12T04:21:00.946Z,37.25
2022-12-12T04:23:28.009Z,37.03
2022-12-12T04:26:21.664Z,37.50
2022-12-12T04:28:55.527Z,36.90
2022-12-12T04:31:23.768Z,36.75
2022-12-12T04:33:50.907Z,36.40
2022-12-12T04:36:17.939Z,36.15
2022-12-12T04:38:45.565Z,36.72
2022-12-12T04:41:12.633Z,37.13
2022-12-12T04:43:39.680Z,37.35
2022-12-12T04:46:08.160Z,36.78
2022-12-12T04:48:38.656Z,36.78
2022-12-12T04:51:06.666Z,36.88
2022-12-12T04:53:34.680Z,37.72
2022-12-12T04:56:02.039Z,38.22
2022-12-12T04:58:29.115Z,35.28
2022-12-12T05:01:00.228Z,35.88
2022-12-12T05:03:33.318Z,36.50
2022-12-12T05:06:01.059Z,36.03
2022-12-12T05:08:29.424Z,36.65
2022-12-12T05:10:56.782Z,37.28
2022-12-12T05:13:24.762Z,36.55
2022-12-12T05:15:53.191Z,36.63
2022-12-12T05:18:20.220Z,37.85
2022-12-12T05:20:47.274Z,38.10
2022-12-12T05:23:14.529Z,37.33
2022-12-12T05:25:41.614Z,36.58
2022-12-12T05:28:08.784Z,36.90
2022-12-12T05:30:35.892Z,39.40
2022-12-12T05:33:03.013Z,38.08
2022-12-12T05:35:30.086Z,37.80
2022-12-12T05:37:57.167Z,36.08
2022-12-12T05:40:24.174Z,37.08
2022-12-12T05:42:51.444Z,37.95
2022-12-12T05:45:18.713Z,38.65
2022-12-12T05:47:45.797Z,37.50
2022-12-12T05:50:12.945Z,38.35
2022-12-12T05:52:40.260Z,37.72
2022-12-12T05:55:07.518Z,38.60
2022-12-12T05:57:34.621Z,40.47
2022-12-12T06:00:01.673Z,39.70
2022-12-12T06:02:28.777Z,39.30
2022-12-12T06:04:55.868Z,38.95
2022-12-12T06:07:22.997Z,38.67
2022-12-12T06:09:50.022Z,40.35
2022-12-12T06:12:17.064Z,39.55
2022-12-12T06:14:44.139Z,39.85
2022-12-12T06:17:11.153Z,40.17
2022-12-12T06:19:38.244Z,37.30
2022-12-12T06:22:05.350Z,39.20
2022-12-12T06:24:32.388Z,38.42
2022-12-12T06:26:59.486Z,37.83
2022-12-12T06:29:26.510Z,40.45
2022-12-12T06:31:53.590Z,39.17
2022-12-12T06:34:20.593Z,37.58
2022-12-12T06:36:47.597Z,39.10
2022-12-12T06:39:14.670Z,38.88
2022-12-12T06:41:41.765Z,38.40
2022-12-12T06:44:08.828Z,38.03
2022-12-12T06:46:35.900Z,39.13
2022-12-12T06:49:06.661Z,40.45
2022-12-12T06:51:34.863Z,40.38
2022-12-12T06:54:01.952Z,38.72
2022-12-12T06:56:29.173Z,39.63
2022-12-12T06:58:56.314Z,40.65
2022-12-12T07:01:23.806Z,40.65
2022-12-12T07:03:51.708Z,40.30
2022-12-12T07:06:19.099Z,40.30
2022-12-12T07:08:46.195Z,40.30
2022-12-12T07:11:17.319Z,41.55
2022-12-12T07:13:44.557Z,41.33
2022-12-12T07:16:11.824Z,41.72
2022-12-12T07:18:39.012Z,42.55
2022-12-12T07:21:07.018Z,41.88
2022-12-12T07:23:34.567Z,39.67
2022-12-12T07:26:03.944Z,40.25
2022-12-12T07:28:31.357Z,39.50
2022-12-12T07:30:58.730Z,41.45
2022-12-12T07:33:33.171Z,40.00
2022-12-12T07:36:06.836Z,40.15
2022-12-12T07:38:33.935Z,39.80
2022-12-12T07:41:07.866Z,39.65
2022-12-12T07:43:38.555Z,37.50
2022-12-12T07:46:10.451Z,38.67
2022-12-12T07:48:37.586Z,38.10
2022-12-12T07:51:04.703Z,39.25
2022-12-12T07:53:31.816Z,39.30
2022-12-12T07:55:58.888Z,41.20
2022-12-12T07:58:25.897Z,40.15
2022-12-12T08:00:52.955Z,40.42
2022-12-12T08:03:20.038Z,41.17
2022-12-12T08:05:47.163Z,40.42
2022-12-12T08:08:14.230Z,41.25
2022-12-12T08:10:41.500Z,40.72
2022-12-12T08:13:08.541Z,40.60
2022-12-12T08:15:35.556Z,38.42
2022-12-12T08:18:02.634Z,40.22
2022-12-12T08:20:29.691Z,40.45
2022-12-12T08:22:56.759Z,42.30
2022-12-12T08:25:23.756Z,44.40
2022-12-12T08:27:50.834Z,42.95
2022-12-12T08:30:17.895Z,42.83
2022-12-12T08:32:44.960Z,43.10
2022-12-12T08:35:12.438Z,45.05
2022-12-12T08:37:39.671Z,44.22
2022-12-12T08:40:07.121Z,43.10
2022-12-12T08:42:34.290Z,41.75
2022-12-12T08:45:01.410Z,41.05
2022-12-12T08:47:29.478Z,40.75
2022-12-12T08:49:56.489Z,40.72
2022-12-12T08:52:23.509Z,38.45
2022-12-12T08:54:50.510Z,39.67
2022-12-12T08:57:21.377Z,34.53
2022-12-12T08:59:51.360Z,35.58
2022-12-12T09:02:18.562Z,35.08
2022-12-12T09:04:45.707Z,35.17
2022-12-12T09:07:12.802Z,35.72
2022-12-12T09:09:39.823Z,34.22
2022-12-12T09:12:07.054Z,34.47
2022-12-12T09:14:34.134Z,32.92
2022-12-12T09:17:01.227Z,36.03
2022-12-12T09:19:28.267Z,35.80
2022-12-12T09:21:55.310Z,35.40
2022-12-12T09:24:23.962Z,34.22
2022-12-12T09:26:51.054Z,33.42
2022-12-12T09:29:18.190Z,34.00
2022-12-12T09:31:45.308Z,32.67
2022-12-12T09:34:12.371Z,30.25
2022-12-12T09:36:39.446Z,28.55
2022-12-12T09:39:06.490Z,26.52
2022-12-12T09:41:33.579Z,26.13
2022-12-12T09:44:10.844Z,27.75
2022-12-12T09:46:42.048Z,25.48
2022-12-12T09:49:16.400Z,28.90
2022-12-12T09:51:44.817Z,27.27
2022-12-12T09:54:15.851Z,28.85
2022-12-12T09:56:53.359Z,27.38
2022-12-12T09:59:23.750Z,26.63
2022-12-12T10:01:54.348Z,26.08
2022-12-12T10:04:21.409Z,27.45
2022-12-12T10:06:50.603Z,26.08
2022-12-12T10:09:36.571Z,28.70
2022-12-12T10:12:08.028Z,26.85
2022-12-12T10:14:38.594Z,26.55
2022-12-12T10:17:07.398Z,26.05
2022-12-12T10:19:35.202Z,26.88
2022-12-12T10:22:07.455Z,26.60
2022-12-12T10:24:37.617Z,27.60
2022-12-12T10:27:11.495Z,26.48
2022-12-12T10:29:41.562Z,25.90
2022-12-12T10:32:12.417Z,25.52
2022-12-12T10:34:58.395Z,26.25
2022-12-12T10:37:25.467Z,25.23
2022-12-12T10:40:11.233Z,25.05
2022-12-12T10:42:56.115Z,26.33
2022-12-12T10:45:38.683Z,26.02
2022-12-12T10:48:06.005Z,25.70
2022-12-12T10:50:53.309Z,26.13
2022-12-12T10:53:20.372Z,24.55
2022-12-12T10:55:50.195Z,25.00
2022-12-12T10:58:17.238Z,26.05
2022-12-12T11:00:45.664Z,27.95
2022-12-12T11:03:21.897Z,24.75
2022-12-12T11:05:49.307Z,24.45
2022-12-12T11:08:19.349Z,25.13
2022-12-12T11:10:46.544Z,25.15
2022-12-12T11:13:16.904Z,25.00
2022-12-12T11:15:47.005Z,26.65
2022-12-12T11:18:15.102Z,24.67
2022-12-12T11:20:46.557Z,26.90
2022-12-12T11:23:18.334Z,31.15
2022-12-12T11:25:45.567Z,29.50
2022-12-12T11:28:16.969Z,30.17
2022-12-12T11:30:44.004Z,31.25
2022-12-12T11:33:19.154Z,30.08
2022-12-12T11:35:47.945Z,30.58
2022-12-12T11:38:22.257Z,29.08
2022-12-12T11:40:56.633Z,29.38
2022-12-12T11:43:26.564Z,28.77
2022-12-12T11:45:59.877Z,27.80
2022-12-12T11:48:59.354Z,26.10
2022-12-12T11:51:35.450Z,25.50
2022-12-12T11:54:22.841Z,24.88
2022-12-12T11:56:57.533Z,23.45
2022-12-12T11:59:28.909Z,22.08
2022-12-12T12:02:10.955Z,22.05
2022-12-12T12:04:52.832Z,22.95
2022-12-12T12:07:34.293Z,19.85
2022-12-12T12:10:04.058Z,21.05
2022-12-12T12:12:39.266Z,21.85
2022-12-12T12:15:06.821Z,23.92
2022-12-12T12:17:42.772Z,23.80
2022-12-12T12:20:18.677Z,24.50
2022-12-12T12:22:51.481Z,23.30
2022-12-12T12:25:18.541Z,25.00
2022-12-12T12:28:01.866Z,23.45
2022-12-12T12:30:30.921Z,23.20
2022-12-12T12:33:16.854Z,23.23
2022-12-12T12:36:06.367Z,23.27
2022-12-12T12:38:52.252Z,22.25
2022-12-12T12:41:26.662Z,21.67
2022-12-12T12:44:12.596Z,21.27
2022-12-12T12:46:44.598Z,20.42
2022-12-12T12:49:31.893Z,19.80
2022-12-12T12:52:03.411Z,18.50
2022-12-12T12:54:56.870Z,17.77
2022-12-12T12:57:23.867Z,18.02
2022-12-12T12:59:51.771Z,17.73
2022-12-12T13:02:35.753Z,19.35
2022-12-12T13:05:07.928Z,22.15
2022-12-12T13:07:47.236Z,21.90
2022-12-12T13:10:21.659Z,20.35
2022-12-12T13:12:48.719Z,20.67
2022-12-12T13:15:15.783Z,20.63
2022-12-12T13:17:45.489Z,21.98
2022-12-12T13:20:19.998Z,20.63
2022-12-12T13:22:49.424Z,20.60
2022-12-12T13:25:19.950Z,19.13
2022-12-12T13:30:18.386Z,20.27
2022-12-12T13:32:52.691Z,20.20
2022-12-12T13:35:26.585Z,20.83
2022-12-12T13:37:53.773Z,18.55
2022-12-12T13:40:32.935Z,17.98
2022-12-12T13:43:07.458Z,20.38
2022-12-12T13:45:37.993Z,17.67
2022-12-12T13:48:08.136Z,19.70
2022-12-12T13:50:35.197Z,19.38
2022-12-12T13:53:08.480Z,19.48
2022-12-12T13:55:35.835Z,21.08
2022-12-12T13:58:05.463Z,18.73
2022-12-12T14:00:33.079Z,20.17
2022-12-12T14:03:06.318Z,20.75
2022-12-12T14:05:42.945Z,20.50
2022-12-12T14:08:15.864Z,19.35
2022-12-12T14:10:44.149Z,20.05
2022-12-12T14:13:18.228Z,19.27
2022-12-12T14:15:45.477Z,19.23
2022-12-12T14:18:31.607Z,19.42
2022-12-12T14:21:00.316Z,19.05
2022-12-12T14:23:28.392Z,19.77
2022-12-12T14:25:55.772Z,19.67
2022-12-12T14:28:29.851Z,18.85
2022-12-12T14:31:03.140Z,19.67
2022-12-12T14:33:53.680Z,21.10
2022-12-12T14:36:21.807Z,21.15
2022-12-12T14:39:04.052Z,20.50
2022-12-12T14:41:33.375Z,20.52
2022-12-12T14:44:37.374Z,20.60
2022-12-12T14:46:47.523Z,20.85
2022-12-12T14:49:15.558Z,22.48
2022-12-12T14:51:42.601Z,21.42
2022-12-12T14:54:19.919Z,22.33
2022-12-12T14:56:52.946Z,21.63
2022-12-12T14:59:24.319Z,21.98
2022-12-12T15:01:52.617Z,21.20
2022-12-12T15:04:39.991Z,21.58
2022-12-12T15:07:07.721Z,24.40
2022-12-12T15:09:35.458Z,23.35
2022-12-12T15:12:08.466Z,22.33
2022-12-12T15:14:35.503Z,21.75
2022-12-12T15:17:09.693Z,22.92
2022-12-12T15:19:38.106Z,23.80
2022-12-12T15:22:10.301Z,22.23
2022-12-12T15:24:37.738Z,22.10
2022-12-12T15:27:04.787Z,24.42
2022-12-12T15:29:31.927Z,22.10
2022-12-12T15:32:06.527Z,25.42
2022-12-12T15:34:33.728Z,25.13
2022-12-12T15:37:19.422Z,25.83
2022-12-12T15:39:46.460Z,23.83
2022-12-12T15:42:13.853Z,24.92
2022-12-12T15:44:42.639Z,30.85
2022-12-12T15:47:11.597Z,29.02
2022-12-12T15:49:39.752Z,25.88
2022-12-12T15:52:20.433Z,25.30
2022-12-12T15:54:51.188Z,24.58
2022-12-12T15:57:19.236Z,24.58
2022-12-12T15:59:46.454Z,27.42
2022-12-12T16:02:14.542Z,27.40
2022-12-12T16:04:41.595Z,28.08
2022-12-12T16:07:15.326Z,26.40
2022-12-12T16:09:57.069Z,28.95
2022-12-12T16:12:42.641Z,30.55
2022-12-12T16:15:19.673Z,29.38
2022-12-12T16:18:05.576Z,29.10
2022-12-12T16:20:32.614Z,33.22
2022-12-12T16:23:16.944Z,33.90
2022-12-12T16:25:44.012Z,36.33
2022-12-12T16:28:17.088Z,38.97
2022-12-12T16:30:50.622Z,42.70
2022-12-12T16:33:25.271Z,39.92
2022-12-12T16:35:52.482Z,37.83
2022-12-12T16:38:19.577Z,34.00
2022-12-12T16:40:47.615Z,32.97
2022-12-12T16:43:15.223Z,33.33
2022-12-12T16:45:42.668Z,33.40
2022-12-12T16:48:14.161Z,32.75
2022-12-12T16:50:41.187Z,31.77
2022-12-12T16:53:08.694Z,35.25
2022-12-12T16:55:36.210Z,31.58
2022-12-12T16:58:03.856Z,28.92
2022-12-12T17:00:30.982Z,28.40
2022-12-12T17:02:58.090Z,29.38
2022-12-12T17:05:25.665Z,29.60
2022-12-12T17:07:53.019Z,33.03
2022-12-12T17:10:21.116Z,34.00
2022-12-12T17:12:48.218Z,36.33
2022-12-12T17:15:17.525Z,32.35
2022-12-12T17:17:45.317Z,30.92
2022-12-12T17:20:12.530Z,28.65
2022-12-12T17:22:40.740Z,29.42
2022-12-12T17:25:08.392Z,29.45
2022-12-12T17:27:35.890Z,30.13
2022-12-12T17:30:03.058Z,30.42
2022-12-12T17:32:30.327Z,31.27
2022-12-12T17:34:57.416Z,31.80
2022-12-12T17:37:24.498Z,31.92
2022-12-12T17:39:51.558Z,30.73
2022-12-12T17:42:18.714Z,30.02
2022-12-12T17:44:45.782Z,34.28
2022-12-12T17:47:12.941Z,38.22
2022-12-12T17:49:40.016Z,32.30
2022-12-12T17:52:07.050Z,46.13
2022-12-12T17:54:34.056Z,34.03
2022-12-12T17:57:01.211Z,31.50
2022-12-12T17:59:28.742Z,31.48
2022-12-12T18:01:55.749Z,32.25
2022-12-12T18:04:27.641Z,32.90
2022-12-12T18:06:55.264Z,31.95
2022-12-12T18:09:22.351Z,33.05
2022-12-12T18:11:49.399Z,31.42
2022-12-12T18:14:19.093Z,29.05
2022-12-12T18:16:53.300Z,30.55
2022-12-12T18:19:21.077Z,30.33
2022-12-12T18:22:03.797Z,35.53
2022-12-12T18:24:32.380Z,40.40
2022-12-12T18:27:00.075Z,34.15
2022-12-12T18:29:27.280Z,33.72
2022-12-12T18:31:54.540Z,30.42
2022-12-12T18:34:21.741Z,31.50
2022-12-12T18:36:49.742Z,39.05
2022-12-12T18:39:16.826Z,35.17
2022-12-12T18:41:43.855Z,35.90
2022-12-12T18:44:12.259Z,35.97
2022-12-12T18:46:43.189Z,34.72
2022-12-12T18:49:12.957Z,35.60
2022-12-12T18:51:40.116Z,46.35
2022-12-12T18:54:14.403Z,44.00
2022-12-12T18:56:42.271Z,47.30
2022-12-12T18:59:09.343Z,50.53
2022-12-12T19:01:36.528Z,48.30
2022-12-12T19:04:10.494Z,51.55
2022-12-12T19:06:39.523Z,48.63
2022-12-12T19:09:11.558Z,41.95
2022-12-12T19:11:38.745Z,45.17
2022-12-12T19:14:06.715Z,46.00
2022-12-12T19:16:33.888Z,48.88
2022-12-12T19:19:01.242Z,47.25
2022-12-12T19:21:28.435Z,43.15
2022-12-12T19:23:55.464Z,36.58
2022-12-12T19:26:27.765Z,37.40
2022-12-12T19:28:58.586Z,36.47
2022-12-12T19:31:25.646Z,38.20
2022-12-12T19:33:52.813Z,39.17
2022-12-12T19:36:20.836Z,43.35
2022-12-12T19:38:48.065Z,49.33
2022-12-12T19:41:15.481Z,46.28
2022-12-12T19:43:42.941Z,46.47
2022-12-12T19:46:10.866Z,45.00
2022-12-12T19:48:38.051Z,45.67
2022-12-12T19:51:06.212Z,43.60
2022-12-12T19:53:33.323Z,45.25
2022-12-12T19:56:00.382Z,43.65
2022-12-12T19:58:27.691Z,44.83
2022-12-12T20:00:54.694Z,40.05
2022-12-12T20:03:21.886Z,40.83
2022-12-12T20:05:53.467Z,44.05
2022-12-12T20:08:20.731Z,39.00
2022-12-12T20:10:47.806Z,37.15
2022-12-12T20:13:14.843Z,38.33
2022-12-12T20:15:41.948Z,34.30
2022-12-12T20:18:16.248Z,32.50
2022-12-12T20:20:43.636Z,32.30
2022-12-12T20:23:10.743Z,34.28
2022-12-12T20:25:40.334Z,34.85
2022-12-12T20:28:07.406Z,36.00
2022-12-12T20:30:34.495Z,37.47
2022-12-12T20:33:01.542Z,39.78
2022-12-12T20:35:29.106Z,40.80
2022-12-12T20:37:56.175Z,50.25
2022-12-12T20:40:23.405Z,54.15
2022-12-12T20:42:55.938Z,39.92
2022-12-12T20:45:25.624Z,35.03
2022-12-12T20:47:52.701Z,37.58
2022-12-12T20:50:19.794Z,36.83
2022-12-12T20:52:47.598Z,36.15
2022-12-12T20:55:14.853Z,37.08
2022-12-12T20:57:42.096Z,32.95
2022-12-12T21:00:09.444Z,30.23
2022-12-12T21:02:36.565Z,29.50
2022-12-12T21:05:05.528Z,25.73
2022-12-12T21:07:33.133Z,29.05
2022-12-12T21:10:00.137Z,27.08
2022-12-12T21:12:27.155Z,27.63
2022-12-12T21:14:57.158Z,26.98
2022-12-12T21:17:28.116Z,27.15
2022-12-12T21:19:55.292Z,26.33
2022-12-12T21:22:22.335Z,26.63
2022-12-12T21:24:49.534Z,27.95
2022-12-12T21:27:16.602Z,28.38
2022-12-12T21:29:43.642Z,26.60
2022-12-12T21:32:10.713Z,28.23
2022-12-12T21:34:40.079Z,29.02
2022-12-12T21:37:07.201Z,28.45
2022-12-12T21:39:34.345Z,29.08
2022-12-12T21:42:01.374Z,28.48
2022-12-12T21:44:28.471Z,27.58
2022-12-12T21:46:55.542Z,27.90
2022-12-12T21:49:30.099Z,25.95
2022-12-12T21:51:58.094Z,28.02
2022-12-12T21:54:25.187Z,26.65
2022-12-12T21:56:52.700Z,27.02
2022-12-12T21:59:19.717Z,27.77
2022-12-12T22:01:46.819Z,26.70
2022-12-12T22:04:14.140Z,25.40
2022-12-12T22:06:41.177Z,25.70
2022-12-12T22:09:09.142Z,27.25
2022-12-12T22:11:48.060Z,27.15
2022-12-12T22:14:18.248Z,27.55
2022-12-12T22:16:45.300Z,27.55
2022-12-12T22:19:12.819Z,28.45
2022-12-12T22:21:39.902Z,26.52
2022-12-12T22:24:07.227Z,26.73
2022-12-12T22:26:35.472Z,27.70
2022-12-12T22:29:03.590Z,29.42
2022-12-12T22:31:31.380Z,28.63
2022-12-12T22:34:01.861Z,29.08
2022-12-12T22:36:29.819Z,30.10
2022-12-12T22:38:57.027Z,27.88
2022-12-12T22:41:24.213Z,28.63
2022-12-12T22:43:54.794Z,28.55
2022-12-12T22:46:21.953Z,28.00
2022-12-12T22:48:49.143Z,29.08
2022-12-12T22:51:16.714Z,28.65
2022-12-12T22:53:44.526Z,29.58
2022-12-12T22:56:11.729Z,27.75
2022-12-12T22:58:38.769Z,28.35
2022-12-12T23:01:09.745Z,27.52
2022-12-12T23:03:36.933Z,28.25
2022-12-12T23:06:07.643Z,28.45
2022-12-12T23:08:34.790Z,27.50
2022-12-12T23:11:05.878Z,28.15
2022-12-12T23:13:33.182Z,27.95
2022-12-12T23:16:00.338Z,27.27
2022-12-12T23:18:27.564Z,27.65
2022-12-12T23:20:54.634Z,27.52
2022-12-12T23:23:21.735Z,26.98
2022-12-12T23:25:49.151Z,26.50
2022-12-12T23:28:16.266Z,25.00
2022-12-12T23:30:43.292Z,26.67
2022-12-12T23:33:10.366Z,28.17
2022-12-12T23:35:37.430Z,26.40
2022-12-12T23:38:04.489Z,26.17
2022-12-12T23:40:31.584Z,47.65
2022-12-12T23:42:58.640Z,29.75
2022-12-12T23:45:25.737Z,27.40
2022-12-12T23:47:52.793Z,25.77
2022-12-12T23:50:19.805Z,25.25
2022-12-12T23:52:46.841Z,25.23
2022-12-12T23:55:14.089Z,25.95
2022-12-12T23:57:41.445Z,25.85
